Tiempo atmosférico en la estación meteorológica de Morón De Almazán , Soria (978 m.)



Fecha
DESCASC
Temp. máxima en grados centígrados (hora)
DESCASC
Temp. mínima en grados centígrados (hora)
DESCASC
Temp. media en grados centígrados
DESCASC
Racha de viento máxima en m/sg (hora)
DESCASC
Velocidad máxima media en intervalos de 10 minutos(hora)
DESCASC
Precipitaciones diarias en mm
DESCASC
Precipitaciones de 00:00 a 06:00 en mm
DESCASC
Precipitaciones de 06:00 a 12:00 en mm
DESCASC
Precipitaciones de 12:00 a 18:00 en mm
DESCASC
Precipitaciones de 18:00 a 24:00 en mm
DESCASC
24-09-2020 19.9 (14:50) 11.5 (02:00) 15.7 16.11 (16:10) 11.11 (17:10) 0.4 0 0.4 0 0
23-09-2020 22 (16:00) 7.5 (00:00) 14.8 10.56 (16:10) 5.83 (12:20) 5 0 0 4.8 0.2
22-09-2020 23.7 (16:40) 8.1 (00:00) 15.9 6.39 (16:00) 3.89 (15:00) 0 0 0 0 0
21-09-2020 23.3 (17:20) 10.6 (00:00) 16.9 6.67 (14:20) 4.17 (19:10) 0.4 0 0.4 0 0
20-09-2020 18.5 (15:40) 9.8 (00:00) 14.2 11.11 (16:30) 6.39 (16:30) 14.8 1.2 0.2 10 3.4
19-09-2020 18 (15:00) 11.5 (00:00) 14.8 16.39 (14:40) 10.28 (14:30) 14.4 3.4 0 10.6 0.4
18-09-2020 22.3 (17:20) 13.1 (00:00) 17.7 13.06 (19:50) 7.78 (19:50) 7 6.6 0 0.4 0
17-09-2020 26.7 (15:20) 15.4 (00:00) 21.1 15.83 (23:59) 6.11 (17:10) 0.2 0 0 0 0.2
16-09-2020 30.5 (15:10) 10.3 (08:20) 20.4 7.78 (18:30) 4.72 (18:30) 0 0 0 0 0
15-09-2020 27.6 (18:00) 10.6 (00:00) 19.1 9.44 (08:40) 5.28 (08:40) 10.6 0 10.6 0 0
14-09-2020 29.1 (14:40) 9.4 (00:00) 19.3 10 (15:20) 5 (16:10) 0 0 0 0 0
13-09-2020 31.9 (16:20) 8.1 (00:00) 20 8.06 (15:50) 4.17 (13:50) 0 0 0 0 0
12-09-2020 31 (18:30) 6.9 (07:30) 19 5.83 (20:20) 3.89 (20:20) 0 0 0 0 0
11-09-2020 30.6 (17:20) 4.7 (00:00) 17.7 10 (19:50) 7.5 (20:10) 0 0 0 0 0
10-09-2020 27.7 (17:00) 8.1 (00:00) 17.9 10 (12:20) 5.56 (13:30) 0 0 0 0 0
09-09-2020 27.9 (17:30) 4.8 (07:50) 16.3 7.5 (14:40) 5 (18:00) 0 0 0 0 0
08-09-2020 25.2 (18:00) 4.7 (00:00) 15 8.33 (16:00) 5 (20:10) 0 0 0 0 0
07-09-2020 22 (16:50) 8 (08:00) 15 15 (11:10) 9.72 (11:30) 0 0 0 0 0
06-09-2020 29.7 (15:50) 9 (00:00) 19.4 10.83 (20:20) 7.5 (18:50) 0 0 0 0 0
05-09-2020 32.9 (17:00) 9.3 (00:00) 21.1 10.28 (18:10) 6.11 (19:40) 0 0 0 0 0
04-09-2020 33.1 (19:00) 8.5 (00:00) 20.8 6.11 (16:10) 3.89 (16:40) 0 0 0 0 0
03-09-2020 31.8 (18:10) 3.7 (00:00) 17.7 5.28 (18:20) 3.33 (18:50) 0 0 0 0 0
02-09-2020 27.9 (17:50) 7.7 (00:00) 17.8 9.72 (03:40) 5.83 (02:10) 0 0 0 0 0
01-09-2020 26.7 (17:30) 6.9 (00:00) 16.8 8.89 (23:30) 5.83 (19:40) 0 0 0 0 0
31-08-2020 25.4 (17:30) 0.2 (00:00) 12.8 6.67 (17:40) 3.89 (18:50) 0 0 0 0 0
30-08-2020 20.5 (16:00) 1.5 (00:00) 11 9.72 (21:50) 6.39 (21:50) 0 0 0 0 0
29-08-2020 20.5 (17:00) 6.4 (00:00) 13.5 13.61 (18:20) 8.89 (16:30) 0.8 0 0 0 0.8
28-08-2020 28.4 (17:00) 11.8 (00:00) 20.1 12.22 (17:40) 7.78 (18:10) 0 0 0 0 0
27-08-2020 33.6 (16:20) 11.1 (00:00) 22.3 8.89 (18:50) 5.56 (14:10) 0 0 0 0 0
26-08-2020 35.5 (17:20) 10 (00:00) 22.8 8.06 (16:20) 5 (15:20) 0 0 0 0 0

Gráficas

Temp. máximas Temp. mínimas Temp. medias Precipitaciones Rachas de viento máximas Velocidades máximas media en intervalos de 10 minutos

Datos horarios

Fecha y hora oficial Temperatura (ºC) Velocidad del viento (km/h) Dirección del viento Racha (km/h) Dirección de racha Precipitación (mm) Presión (hPa) Tendencia (hPa) Humedad (%)
2020-09-24 23:00:00 12.4 21 Oeste 44 Sudoeste 0 -- -- 62
2020-09-24 22:00:00 13.4 24 Oeste 42 Oeste 0 -- -- 61
2020-09-24 21:00:00 14.2 18 Oeste 37 Oeste 0 -- -- 60
2020-09-24 20:00:00 15.6 27 Oeste 45 Sudoeste 0 -- -- 57
2020-09-24 19:00:00 18.3 27 Oeste 55 Oeste 0 -- -- 50
2020-09-24 18:00:00 19.2 32 Oeste 56 Oeste 0 -- -- 44
2020-09-24 17:00:00 19.6 36 Oeste 58 Oeste 0 -- -- 46
2020-09-24 16:00:00 18.7 35 Oeste 56 Oeste 0 -- -- 50
2020-09-24 15:00:00 19.6 35 Oeste 56 Oeste 0 -- -- 52
2020-09-24 14:00:00 18.3 31 Oeste 50 Oeste 0 -- -- 58
2020-09-24 13:00:00 17.4 22 Oeste 38 Oeste 0 -- -- 70
2020-09-24 12:00:00 15.1 13 Oeste 21 Oeste 0 -- -- 84
2020-09-24 11:00:00 14.5 14 Oeste 25 Oeste 0 -- -- 86
2020-09-24 10:00:00 13.7 6 Oeste 12 Oeste 0 -- -- 92
2020-09-24 09:00:00 12.9 4 Oeste 18 Oeste 0.2 -- -- 96
2020-09-24 08:00:00 13.1 7 Oeste 16 Sudoeste 0 -- -- 92
2020-09-24 07:00:00 12.6 6 Oeste 14 Oeste 0.2 -- -- 93
2020-09-24 06:00:00 12.8 5 Oeste 15 Sudoeste 0 -- -- 94
2020-09-24 05:00:00 12.9 8 Sudoeste 17 Sudoeste 0 -- -- 90
2020-09-24 04:00:00 12.4 4 Oeste 14 Sudoeste 0 -- -- 91
2020-09-24 03:00:00 12.2 9 Oeste 12 Oeste 0 -- -- 93
2020-09-24 02:00:00 11.5 2 Sudoeste 5 Sudoeste 0 -- -- 96
2020-09-24 01:00:00 12.3 0 Calma 13 Noroeste 0 -- -- 94
2020-09-24 00:00:00 12.1 2 Sudoeste 6 Oeste 0 -- -- 95
2020-09-23 23:00:00 13.8 3 Oeste 10 Oeste 0 -- -- 91
2020-09-23 22:00:00 15.2 12 Sudoeste 18 Sudoeste 0 -- -- 86
2020-09-23 21:00:00 14.6 7 Sudoeste 17 Sur 0 -- -- 90
2020-09-23 20:00:00 15.5 8 Sudoeste 15 Sur 0 -- -- 87
2020-09-23 19:00:00 16.5 5 Sur 18 Sudoeste 0.2 -- -- 86
2020-09-23 18:00:00 14.9 13 Sudoeste 37 Sudoeste 4.4 -- -- 93
2020-09-23 17:00:00 18.1 15 Oeste 38 Sur 0.2 -- -- 73
2020-09-23 16:00:00 22 21 Oeste 32 Oeste 0 -- -- 55
2020-09-23 15:00:00 16.6 9 Oeste 32 Sudoeste 0.2 -- -- 88
2020-09-23 14:00:00 19.3 11 Oeste 31 Sur 0 -- -- 65
2020-09-23 13:00:00 18.2 19 Sudoeste 37 Sudoeste 0 -- -- 69
2020-09-23 12:00:00 17.2 15 Sudoeste 28 Sudoeste 0 -- -- 73
2020-09-23 11:00:00 16.6 11 Sudoeste 23 Sudoeste 0 -- -- 75
2020-09-23 10:00:00 13.4 3 Oeste 8 Sudeste 0 -- -- 87
2020-09-23 09:00:00 11 0 Calma 8 Este 0 -- -- 94
2020-09-23 08:00:00 8.5 3 Este 6 Este 0 -- -- 96
2020-09-23 07:00:00 7.8 3 Este 5 Este 0 -- -- 97
2020-09-23 06:00:00 7.8 3 Este 6 Este 0 -- -- 96
2020-09-23 05:00:00 8.1 3 Este 5 Este 0 -- -- 96
2020-09-23 04:00:00 8.1 3 Sudeste 5 Sudeste 0 -- -- 97
2020-09-23 03:00:00 8.4 0 Calma 5 Norte 0 -- -- 96
2020-09-23 02:00:00 9 4 Nordeste 5 Nordeste 0 -- -- 94
2020-09-23 01:00:00 9.9 3 Este 6 Este 0 -- -- 92
2020-09-23 00:00:00 10.8 0 Calma 5 Este 0 -- -- 92
2020-09-22 23:00:00 12.2 0 Calma 3 Noroeste 0 -- -- 84
2020-09-22 22:00:00 13.6 6 Noroeste 9 Oeste 0 -- -- 73
2020-09-22 21:00:00 14.5 0 Calma 9 Oeste 0 -- -- 76
2020-09-22 20:00:00 17.6 7 Oeste 20 Oeste 0 -- -- 52
2020-09-22 19:00:00 21.8 11 Oeste 21 Oeste 0 -- -- 41
2020-09-22 18:00:00 20.6 10 Oeste 23 Oeste 0 -- -- 48
2020-09-22 17:00:00 21.3 12 Oeste 19 Oeste 0 -- -- 46
2020-09-22 16:00:00 21.1 11 Oeste 23 Sur 0 -- -- 46
2020-09-22 15:00:00 22.2 14 Oeste 22 Oeste 0 -- -- 44
2020-09-22 14:00:00 21.4 9 Oeste 18 Sudoeste 0 -- -- 44
2020-09-22 13:00:00 19.2 8 Oeste 15 Oeste 0 -- -- 53
2020-09-22 12:00:00 19.1 10 Oeste 16 Oeste 0 -- -- 62
2020-09-22 11:00:00 15.5 4 Noroeste 8 Oeste 0 -- -- 79
2020-09-22 10:00:00 12.3 4 Sudoeste 5 Sudoeste 0 -- -- 94
2020-09-22 09:00:00 10.1 0 Calma 3 Este 0 -- -- 99
2020-09-22 08:00:00 8.3 0 Calma 5 Este 0 -- -- 98
2020-09-22 07:00:00 9.2 2 Este 3 Este 0 -- -- 97
2020-09-22 06:00:00 10.4 0 Calma 3 Norte 0 -- -- 97
2020-09-22 05:00:00 11.1 0 Calma 7 Sudeste 0 -- -- 92
2020-09-22 04:00:00 11.9 3 Este 5 Este 0 -- -- 92
2020-09-22 03:00:00 12.2 2 Noroeste 5 Noroeste 0 -- -- 91
2020-09-22 02:00:00 12 3 Noroeste 10 Sur 0 -- -- 91
2020-09-22 01:00:00 12.3 4 Sur 11 Sur 0 -- -- 86
2020-09-22 00:00:00 13.2 2 Sur 20 Oeste 0 -- -- 81
2020-09-21 23:00:00 14.8 7 Sudoeste 16 Sudoeste 0 -- -- 78
2020-09-21 22:00:00 15.3 3 Este 20 Nordeste 0 -- -- 75
2020-09-21 21:00:00 14.8 5 Nordeste 10 Norte 0 -- -- 78
2020-09-21 20:00:00 17.4 8 Nordeste 20 Norte 0 -- -- 64
2020-09-21 19:00:00 21.2 12 Noroeste 19 Norte 0 -- -- 49
2020-09-21 18:00:00 22.7 13 Oeste 22 Oeste 0 -- -- 41
2020-09-21 17:00:00 22.5 11 Oeste 21 Noroeste 0 -- -- 42
2020-09-21 16:00:00 21.9 10 Oeste 23 Oeste 0 -- -- 46
2020-09-21 15:00:00 20.9 13 Noroeste 24 Noroeste 0 -- -- 51
2020-09-21 14:00:00 19.8 13 Oeste 22 Oeste 0 -- -- 62
2020-09-21 13:00:00 17.9 14 Oeste 22 Oeste 0 -- -- 73
2020-09-21 12:00:00 16.1 13 Oeste 20 Oeste 0 -- -- 82
2020-09-21 11:00:00 14.8 12 Oeste 18 Oeste 0 -- -- 89
2020-09-21 10:00:00 13.9 8 Oeste 15 Oeste 0 -- -- 95
2020-09-21 09:00:00 12.9 5 Oeste 13 Oeste 0 -- -- 98
2020-09-21 08:00:00 12.8 10 Oeste 23 Oeste 0.4 -- -- 98
2020-09-21 07:00:00 13 10 Oeste 17 Sudoeste 0 -- -- 94
2020-09-21 06:00:00 12.7 6 Oeste 10 Oeste 0 -- -- 97
2020-09-21 05:00:00 12.3 3 Noroeste 5 Oeste 0 -- -- 98
2020-09-21 04:00:00 11.7 0 Calma 3 Nordeste 0 -- -- 98
2020-09-21 03:00:00 11 0 Calma 5 Sur 0 -- -- 99
2020-09-21 02:00:00 10.9 0 Calma 2 Oeste 0 -- -- 97
2020-09-21 01:00:00 12.2 3 Noroeste 4 Noroeste 0 -- -- 97
2020-09-21 00:00:00 12.2 0 Calma 5 Oeste 0 -- -- 96
2020-09-20 23:00:00 12.5 2 Oeste 15 Sudoeste 0.4 -- -- 96
2020-09-20 22:00:00 13.7 9 Oeste 12 Oeste 0 -- -- 97
2020-09-20 21:00:00 12.6 2 Sudeste 4 Sudeste 0 -- -- 97
2020-09-20 20:00:00 13.6 0 Calma 4 Sudoeste 0.4 -- -- 94
2020-09-20 19:00:00 13.6 3 Sudoeste 23 Oeste 2.6 -- -- 95
2020-09-20 18:00:00 15.3 0 Calma 6 Oeste 0 -- -- 93
2020-09-20 17:00:00 14.2 3 Oeste 40 Oeste 2.2 -- -- 94
2020-09-20 16:00:00 17.7 9 Sudoeste 15 Sudoeste 0.4 -- -- 78
2020-09-20 15:00:00 15 7 Oeste 17 Oeste 7 -- -- 95
2020-09-20 14:00:00 14.8 17 Noroeste 24 Oeste 0.4 -- -- 91
2020-09-20 13:00:00 16.7 12 Sur 20 Sudoeste 0 -- -- 77
2020-09-20 12:00:00 16.1 12 Sudoeste 20 Oeste 0 -- -- 80
2020-09-20 11:00:00 15.2 12 Sudoeste 21 Sudoeste 0 -- -- 86
2020-09-20 10:00:00 14.3 10 Sudoeste 17 Sudoeste 0 -- -- 91
2020-09-20 09:00:00 13.6 8 Sudoeste 15 Sudoeste 0 -- -- 93
2020-09-20 08:00:00 12.1 0 Calma 4 Sudoeste 0 -- -- 98
2020-09-20 07:00:00 12.2 0 Calma 2 Sudeste 0.2 -- -- 97
2020-09-20 06:00:00 11.8 0 Calma 3 Este 0.6 -- -- 97
2020-09-20 05:00:00 11.6 0 Calma 2 Oeste 0.6 -- -- 96
2020-09-20 04:00:00 11.5 0 Calma 2 Este 0 -- -- 96
2020-09-20 03:00:00 10.2 0 Calma 6 Sudoeste 0 -- -- 96
2020-09-20 02:00:00 9.8 0 Calma 7 Noroeste 0 -- -- 96
2020-09-20 01:00:00 11.1 5 Oeste 13 Oeste 0 -- -- 93
2020-09-20 00:00:00 11.5 5 Oeste 13 Sudoeste 0 -- -- 96
2020-09-19 23:00:00 13.7 8 Sudoeste 18 Sudoeste 0 -- -- 91
2020-09-19 22:00:00 13.8 6 Oeste 18 Sudoeste 0.2 -- -- 92
2020-09-19 21:00:00 13.9 8 Sudoeste 19 Sudoeste 0 -- -- 91
2020-09-19 20:00:00 14.3 10 Sudoeste 24 Sudoeste 0.2 -- -- 87
2020-09-19 19:00:00 14.6 17 Sudoeste 33 Sudoeste 0 -- -- 86
2020-09-19 18:00:00 15 18 Sudoeste 37 Sudoeste 5 -- -- 88
2020-09-19 17:00:00 14.6 23 Sudoeste 40 Sudoeste 5 -- -- 87
2020-09-19 16:00:00 15.3 22 Sudoeste 47 Sudoeste 0.6 -- -- 81
2020-09-19 15:00:00 18 27 Sudoeste 59 Sur 0 -- -- 69
2020-09-19 14:00:00 16.5 33 Sudoeste 54 Sudoeste 0 -- -- 74
2020-09-19 13:00:00 14.8 27 Sudoeste 44 Sur 0 -- -- 83
2020-09-19 12:00:00 15.1 29 Sur 46 Sur 0 -- -- 81
2020-09-19 11:00:00 15.7 29 Sudoeste 51 Sudoeste 0 -- -- 80
2020-09-19 10:00:00 14.3 26 Sur 40 Sur 0 -- -- 85
2020-09-19 09:00:00 13.3 13 Sur 25 Sur 0 -- -- 88
2020-09-19 08:00:00 13 13 Sur 30 Sudoeste 0 -- -- 90
2020-09-19 07:00:00 12.8 8 Sur 23 Sur 0 -- -- 91
2020-09-19 06:00:00 12.1 14 Sur 29 Sur 0.2 -- -- 91
2020-09-19 05:00:00 11.9 15 Sur 28 Sur 2.4 -- -- 91
2020-09-19 04:00:00 12.6 23 Sur 49 Sur 0.4 -- -- 86
2020-09-19 03:00:00 14 12 Sudeste 24 Sudeste 0 -- -- 84
2020-09-19 02:00:00 13 4 Este 13 Sudeste 0.4 -- -- 89
2020-09-19 01:00:00 13.4 7 Sudeste 19 Sur 0 -- -- 82
2020-09-19 00:00:00 13.8 7 Sur 24 Sudeste 0 -- -- 81
2020-09-18 23:00:00 13.2 4 Sudeste 13 Sur 0 -- -- 85
2020-09-18 22:00:00 13.5 3 Sudeste 15 Sur 0 -- -- 82
2020-09-18 21:00:00 14 12 Sur 33 Sur 0 -- -- 82
2020-09-18 20:00:00 16.3 25 Sur 47 Sur 0 -- -- 66
2020-09-18 19:00:00 18.9 17 Sur 35 Sur 0 -- -- 57
2020-09-18 18:00:00 21.9 17 Sur 33 Sur 0 -- -- 46
2020-09-18 17:00:00 21 14 Sur 27 Sur 0 -- -- 53
2020-09-18 16:00:00 20.4 11 Sur 25 Sudeste 0 -- -- 58
2020-09-18 15:00:00 18 15 Sudeste 30 Sudeste 0.4 -- -- 70
2020-09-18 14:00:00 19.9 13 Sur 31 Sur 0 -- -- 57
2020-09-18 13:00:00 20 19 Sur 34 Sur 0 -- -- 58
2020-09-18 12:00:00 19.4 15 Sur 31 Sur 0 -- -- 65
2020-09-18 11:00:00 18.4 12 Sudeste 24 Sur 0 -- -- 72
2020-09-18 10:00:00 17.1 9 Sudeste 19 Sudeste 0 -- -- 80
2020-09-18 09:00:00 16.7 8 Este 17 Sudeste 0 -- -- 82
2020-09-18 08:00:00 16.5 11 Sudeste 21 Sudeste 0 -- -- 81
2020-09-18 07:00:00 16.5 8 Sudeste 21 Sudeste 0 -- -- 84
2020-09-18 06:00:00 15.8 8 Este 19 Este 0 -- -- 87
2020-09-18 05:00:00 15.5 8 Este 15 Este 0 -- -- 91
2020-09-18 04:00:00 15.5 8 Este 14 Este 1 -- -- 93
2020-09-18 03:00:00 15.4 5 Sudoeste 13 Noroeste 2.4 -- -- 95
2020-09-18 02:00:00 16.2 6 Oeste 15 Este 0.4 -- -- 87
2020-09-18 01:00:00 16 10 Este 46 Sudeste 2.8 -- -- 88
2020-09-18 00:00:00 18.4 15 Sudeste 57 Sur 0.2 -- -- 73
2020-09-17 23:00:00 18 7 Este 10 Este 0 -- -- 70
2020-09-17 22:00:00 18.1 8 Este 12 Este 0 -- -- 69
2020-09-17 21:00:00 18.3 3 Este 13 Sur 0 -- -- 69
2020-09-17 20:00:00 20.7 9 Sur 23 Sur 0 -- -- 59
2020-09-17 19:00:00 22.4 15 Sur 36 Sur 0 -- -- 54
2020-09-17 18:00:00 23.4 19 Sur 37 Sur 0 -- -- 50
2020-09-17 17:00:00 24.4 16 Sur 32 Sur 0 -- -- 46
2020-09-17 16:00:00 24.4 18 Sur 32 Sur 0 -- -- 45
2020-09-17 15:00:00 25.5 15 Sur 32 Sudoeste 0 -- -- 45
2020-09-17 14:00:00 24.7 17 Sudeste 32 Sur 0 -- -- 43
2020-09-17 13:00:00 24.1 14 Sudeste 26 Sudeste 0 -- -- 46
2020-09-17 12:00:00 22.9 9 Sudeste 16 Sudeste 0 -- -- 48
2020-09-17 11:00:00 22.4 7 Sur 13 Sur 0 -- -- 52
2020-09-17 10:00:00 19.8 5 Sudeste 16 Sudeste 0 -- -- 59
2020-09-17 09:00:00 18 6 Sudeste 13 Sudeste 0 -- -- 66
2020-09-17 08:00:00 17.6 7 Este 13 Este 0 -- -- 67
2020-09-17 07:00:00 18.1 6 Este 15 Este 0 -- -- 63
2020-09-17 06:00:00 17.1 7 Este 13 Este 0 -- -- 68
2020-09-17 05:00:00 16.9 5 Sudeste 9 Sudeste 0 -- -- 71
2020-09-17 04:00:00 15.7 4 Este 6 Este 0 -- -- 81
2020-09-17 03:00:00 15.5 0 Calma 5 Nordeste 0 -- -- 82
2020-09-17 02:00:00 16.2 2 Nordeste 6 Nordeste 0 -- -- 75
2020-09-17 01:00:00 20.5 5 Sudeste 14 Sudeste 0 -- -- 55
2020-09-17 00:00:00 20.7 9 Este 17 Este 0 -- -- 54
2020-09-16 23:00:00 20.8 7 Sudeste 17 Este 0 -- -- 55
2020-09-16 22:00:00 21.9 11 Sudeste 20 Sudeste 0 -- -- 53
2020-09-16 21:00:00 22.4 13 Sudeste 27 Este 0 -- -- 49
2020-09-16 20:00:00 24 14 Este 28 Este 0 -- -- 44
2020-09-16 19:00:00 26 14 Este 28 Este 0 -- -- 39
2020-09-16 18:00:00 26.5 15 Sudeste 27 Sudeste 0 -- -- 38
2020-09-16 17:00:00 27.1 8 Sudeste 15 Sur 0 -- -- 36
2020-09-16 16:00:00 29.3 8 Este 14 Este 0 -- -- 32
2020-09-16 15:00:00 29.9 6 Este 22 Nordeste 0 -- -- 32
2020-09-16 14:00:00 28.2 6 Sudeste 21 Este 0 -- -- 35
2020-09-16 13:00:00 27.1 12 Este 19 Este 0 -- -- 38
2020-09-16 12:00:00 26.5 9 Este 16 Nordeste 0 -- -- 39
2020-09-16 11:00:00 23.5 3 Sudeste 7 Sudeste 0 -- -- 48
2020-09-16 10:00:00 17.7 0 Calma 3 Sudeste 0 -- -- 73
2020-09-16 09:00:00 12.5 0 Calma 3 Norte 0 -- -- 96
2020-09-16 08:00:00 10.7 0 Calma 5 Este 0 -- -- 96
2020-09-16 07:00:00 10.8 0 Calma 4 Sur 0 -- -- 95
2020-09-16 06:00:00 10.9 3 Este 6 Este 0 -- -- 95
2020-09-16 05:00:00 11 0 Calma 4 Nordeste 0 -- -- 93
2020-09-16 04:00:00 11.3 3 Nordeste 5 Nordeste 0 -- -- 93
2020-09-16 03:00:00 11.4 5 Este 6 Este 0 -- -- 93
2020-09-16 02:00:00 11.7 4 Este 8 Este 0 -- -- 93
2020-09-16 01:00:00 12.1 3 Este 6 Nordeste 0 -- -- 93
2020-09-16 00:00:00 12.7 4 Nordeste 7 Este 0 -- -- 89
2020-09-15 23:00:00 13.6 2 Nordeste 8 Este 0 -- -- 86
2020-09-15 22:00:00 15.8 4 Nordeste 8 Sur 0 -- -- 74
2020-09-15 21:00:00 17.9 8 Sur 12 Sur 0 -- -- 66
2020-09-15 20:00:00 22.4 6 Sudoeste 20 Sudoeste 0 -- -- 48
2020-09-15 19:00:00 26.2 13 Sudoeste 24 Oeste 0 -- -- 36
2020-09-15 18:00:00 27.6 13 Sudoeste 29 Sudoeste 0 -- -- 34
2020-09-15 17:00:00 27.2 18 Sudoeste 32 Sudoeste 0 -- -- 37
2020-09-15 16:00:00 26.9 18 Sudoeste 32 Sudoeste 0 -- -- 40
2020-09-15 15:00:00 26.3 13 Sudoeste 27 Sudoeste 0 -- -- 44
2020-09-15 14:00:00 25.6 15 Sudoeste 26 Sur 0 -- -- 47
2020-09-15 13:00:00 23.9 8 Sur 17 Sudeste 0 -- -- 55
2020-09-15 12:00:00 20.7 7 Sudeste 20 Sudeste 0 -- -- 69
2020-09-15 11:00:00 16.3 6 Sudeste 10 Sudeste 0 -- -- 85
2020-09-15 10:00:00 14.5 3 Oeste 8 Nordeste 1.6 -- -- 97
2020-09-15 09:00:00 13.1 2 Sudeste 34 Sudoeste 9 -- -- 96
2020-09-15 08:00:00 13.9 13 Noroeste 21 Noroeste 0 -- -- 83
2020-09-15 07:00:00 10.7 3 Sudeste 7 Noroeste 0 -- -- 84
2020-09-15 06:00:00 11.7 2 Nordeste 6 Este 0 -- -- 75
2020-09-15 05:00:00 13.4 6 Este 8 Este 0 -- -- 72
2020-09-15 04:00:00 13.8 2 Noroeste 4 Sudeste 0 -- -- 74
2020-09-15 03:00:00 14.9 0 Calma 9 Oeste 0 -- -- 71
2020-09-15 02:00:00 15.8 0 Calma 5 Oeste 0 -- -- 65
2020-09-15 01:00:00 16.6 0 Calma 12 Este 0 -- -- 66
2020-09-15 00:00:00 18.3 9 Este 13 Este 0 -- -- 54
2020-09-14 23:00:00 17.9 6 Nordeste 11 Este 0 -- -- 56
2020-09-14 22:00:00 20.8 5 Sur 19 Este 0 -- -- 50
2020-09-14 21:00:00 20.9 10 Este 14 Este 0 -- -- 47
2020-09-14 20:00:00 22.4 0 Calma 6 Sur 0 -- -- 44
2020-09-14 19:00:00 24.5 3 Sudoeste 24 Sur 0 -- -- 39
2020-09-14 18:00:00 25.9 10 Sudoeste 30 Sur 0 -- -- 33
2020-09-14 17:00:00 26.8 17 Sur 31 Sur 0 -- -- 31
2020-09-14 16:00:00 27.5 17 Sur 36 Sur 0 -- -- 30
2020-09-14 15:00:00 28.6 14 Sur 26 Sur 0 -- -- 28
2020-09-14 14:00:00 26.8 11 Sur 26 Sur 0 -- -- 30
2020-09-14 13:00:00 26.4 10 Sudeste 22 Sudeste 0 -- -- 32
2020-09-14 12:00:00 26.7 7 Este 13 Sudeste 0 -- -- 33
2020-09-14 11:00:00 23.8 5 Sudeste 14 Sudeste 0 -- -- 39
2020-09-14 10:00:00 19.9 0 Calma 4 Sudeste 0 -- -- 50
2020-09-14 09:00:00 15.5 0 Calma 5 Nordeste 0 -- -- 66
2020-09-14 08:00:00 9.5 3 Este 8 Este 0 -- -- 83
2020-09-14 07:00:00 10 4 Este 8 Nordeste 0 -- -- 81
2020-09-14 06:00:00 10.3 5 Este 9 Sudeste 0 -- -- 76
2020-09-14 05:00:00 11.3 5 Este 9 Nordeste 0 -- -- 72
2020-09-14 04:00:00 10.6 4 Este 8 Este 0 -- -- 73
2020-09-14 03:00:00 11.5 6 Nordeste 9 Este 0 -- -- 68
2020-09-14 02:00:00 12.8 4 Este 9 Este 0 -- -- 63
2020-09-14 01:00:00 14.3 5 Este 11 Sudeste 0 -- -- 56
2020-09-14 00:00:00 16.7 5 Este 11 Este 0 -- -- 46
2020-09-13 23:00:00 15.4 4 Nordeste 12 Este 0 -- -- 54
2020-09-13 22:00:00 17.8 3 Oeste 11 Nordeste 0 -- -- 47
2020-09-13 21:00:00 22.3 4 Sudeste 12 Sur 0 -- -- 36
2020-09-13 20:00:00 24.9 4 Sudeste 6 Nordeste 0 -- -- 34
2020-09-13 19:00:00 29 6 Sudoeste 21 Sudoeste 0 -- -- 24
2020-09-13 18:00:00 30.6 9 Sudoeste 26 Sur 0 -- -- 23
2020-09-13 17:00:00 31.4 9 Sur 27 Sur 0 -- -- 21
2020-09-13 16:00:00 30.7 10 Sur 29 Sur 0 -- -- 23
2020-09-13 15:00:00 30.2 13 Sur 27 Sur 0 -- -- 24
2020-09-13 14:00:00 29.4 13 Sudeste 26 Sudeste 0 -- -- 27
2020-09-13 13:00:00 28.2 14 Sur 24 Sur 0 -- -- 29
2020-09-13 12:00:00 25.9 15 Sur 24 Sur 0 -- -- 35
2020-09-13 11:00:00 23.6 13 Sur 21 Sur 0 -- -- 43
2020-09-13 10:00:00 19.2 5 Sudeste 9 Sudeste 0 -- -- 58
2020-09-13 09:00:00 12.8 2 Este 8 Este 0 -- -- 78
2020-09-13 08:00:00 8.8 6 Este 7 Este 0 -- -- 86
2020-09-13 07:00:00 8.5 0 Calma 6 Nordeste 0 -- -- 88
2020-09-13 06:00:00 9.6 4 Nordeste 7 Nordeste 0 -- -- 87
2020-09-13 05:00:00 9.5 2 Este 6 Este 0 -- -- 82
2020-09-13 04:00:00 9.7 4 Este 8 Sur 0 -- -- 79
2020-09-13 03:00:00 10.1 0 Calma 4 Este 0 -- -- 79
2020-09-13 02:00:00 11.1 3 Este 5 Este 0 -- -- 75
2020-09-13 01:00:00 13.2 3 Este 7 Este 0 -- -- 68
2020-09-13 00:00:00 14.9 4 Este 7 Este 0 -- -- 63
2020-09-12 23:00:00 16 2 Este 8 Este 0 -- -- 61
2020-09-12 22:00:00 17.4 5 Este 13 Este 0 -- -- 54
2020-09-12 21:00:00 20.3 8 Nordeste 21 Nordeste 0 -- -- 43
2020-09-12 20:00:00 26.8 5 Este 10 Este 0 -- -- 20
2020-09-12 19:00:00 30.2 3 Nordeste 16 Este 0 -- -- 17
2020-09-12 18:00:00 30.9 3 Sudoeste 15 Sur 0 -- -- 19
2020-09-12 17:00:00 30 7 Sudoeste 16 Sudeste 0 -- -- 20
2020-09-12 16:00:00 29.5 9 Sudoeste 15 Sur 0 -- -- 20
2020-09-12 15:00:00 29.2 6 Sudoeste 14 Sudoeste 0 -- -- 22
2020-09-12 14:00:00 27.7 6 Este 18 Sur 0 -- -- 30
2020-09-12 13:00:00 25.7 9 Sudeste 19 Sudeste 0 -- -- 38
2020-09-12 12:00:00 24.3 10 Este 18 Este 0 -- -- 42
2020-09-12 11:00:00 22.4 8 Este 15 Este 0 -- -- 48
2020-09-12 10:00:00 17.6 0 Calma 5 Este 0 -- -- 62
2020-09-12 09:00:00 10.6 2 Nordeste 5 Este 0 -- -- 84
2020-09-12 08:00:00 6.9 0 Calma 4 Nordeste 0 -- -- 91
2020-09-12 07:00:00 7.4 3 Este 4 Este 0 -- -- 90
2020-09-12 06:00:00 7.7 2 Sudeste 5 Nordeste 0 -- -- 91
2020-09-12 05:00:00 8.4 3 Este 5 Este 0 -- -- 87
2020-09-12 04:00:00 9.3 2 Sur 5 Este 0 -- -- 84
2020-09-12 03:00:00 10.8 0 Calma 6 Sudeste 0 -- -- 84
2020-09-12 02:00:00 12.8 3 Este 7 Este 0 -- -- 79
2020-09-12 01:00:00 15.4 4 Nordeste 9 Nordeste 0 -- -- 71
2020-09-12 00:00:00 16.9 6 Sudeste 13 Este 0 -- -- 65
2020-09-11 23:00:00 17.8 6 Este 12 Nordeste 0 -- -- 58
2020-09-11 22:00:00 19.1 5 Nordeste 20 Nordeste 0 -- -- 48
2020-09-11 21:00:00 21.4 12 Nordeste 35 Norte 0 -- -- 45
2020-09-11 20:00:00 25 21 Norte 36 Nordeste 0 -- -- 38
2020-09-11 19:00:00 29.3 14 Oeste 25 Oeste 0 -- -- 19
2020-09-11 18:00:00 30.1 12 Oeste 25 Oeste 0 -- -- 20
2020-09-11 17:00:00 30.4 8 Oeste 26 Sudoeste 0 -- -- 21
2020-09-11 16:00:00 29.3 8 Sudoeste 26 Oeste 0 -- -- 22
2020-09-11 15:00:00 28.3 11 Oeste 26 Sudoeste 0 -- -- 22
2020-09-11 14:00:00 27.1 12 Oeste 24 Oeste 0 -- -- 27
2020-09-11 13:00:00 25.6 8 Oeste 14 Oeste 0 -- -- 29
2020-09-11 12:00:00 24.1 4 Oeste 11 Oeste 0 -- -- 34
2020-09-11 11:00:00 20 3 Sur 6 Noroeste 0 -- -- 50
2020-09-11 10:00:00 16.4 0 Calma 5 Este 0 -- -- 55
2020-09-11 09:00:00 9.6 0 Calma 5 Este 0 -- -- 77
2020-09-11 08:00:00 5.1 3 Este 5 Este 0 -- -- 90
2020-09-11 07:00:00 4.9 0 Calma 4 Sudoeste 0 -- -- 90
2020-09-11 06:00:00 6 0 Calma 7 Este 0 -- -- 87
2020-09-11 05:00:00 6.7 4 Este 7 Este 0 -- -- 84
2020-09-11 04:00:00 7.5 5 Este 6 Este 0 -- -- 80
2020-09-11 03:00:00 8.6 0 Calma 8 Este 0 -- -- 77
2020-09-11 02:00:00 11.3 3 Sudeste 11 Este 0 -- -- 68
2020-09-11 01:00:00 16.2 0 Calma 15 Nordeste 0 -- -- 54
2020-09-11 00:00:00 16.5 5 Norte 13 Nordeste 0 -- -- 53
2020-09-10 23:00:00 16.6 3 Sur 21 Norte 0 -- -- 53
2020-09-10 22:00:00 17.3 7 Nordeste 12 Nordeste 0 -- -- 47
2020-09-10 21:00:00 19.3 7 Nordeste 20 Norte 0 -- -- 42
2020-09-10 20:00:00 22.8 13 Nordeste 27 Nordeste 0 -- -- 35
2020-09-10 19:00:00 25.5 15 Nordeste 28 Norte 0 -- -- 30
2020-09-10 18:00:00 27 17 Norte 30 Norte 0 -- -- 27
2020-09-10 17:00:00 27.7 16 Nordeste 30 Norte 0 -- -- 26
2020-09-10 16:00:00 27.2 18 Norte 35 Nordeste 0 -- -- 28
2020-09-10 15:00:00 26.9 14 Norte 32 Norte 0 -- -- 30
2020-09-10 14:00:00 26 17 Norte 31 Nordeste 0 -- -- 32
2020-09-10 13:00:00 24.8 17 Norte 36 Norte 0 -- -- 36
2020-09-10 12:00:00 23.4 18 Norte 28 Norte 0 -- -- 38
2020-09-10 11:00:00 20.9 9 Oeste 15 Oeste 0 -- -- 47
2020-09-10 10:00:00 17 5 Oeste 8 Oeste 0 -- -- 60
2020-09-10 09:00:00 12.6 0 Calma 5 Nordeste 0 -- -- 75
2020-09-10 08:00:00 9.2 0 Calma 10 Sur 0 -- -- 85
2020-09-10 07:00:00 8.5 0 Calma 8 Noroeste 0 -- -- 87
2020-09-10 06:00:00 9.3 5 Noroeste 12 Norte 0 -- -- 83
2020-09-10 05:00:00 13 10 Nordeste 24 Norte 0 -- -- 71
2020-09-10 04:00:00 11.9 2 Nordeste 15 Nordeste 0 -- -- 75
2020-09-10 03:00:00 13.6 4 Nordeste 10 Sudeste 0 -- -- 71
2020-09-10 02:00:00 14.6 4 Nordeste 18 Nordeste 0 -- -- 69
2020-09-10 01:00:00 16.1 7 Nordeste 17 Norte 0 -- -- 64
2020-09-10 00:00:00 16 5 Sudoeste 10 Sudoeste 0 -- -- 63
2020-09-09 23:00:00 17.1 2 Este 18 Nordeste 0 -- -- 60
2020-09-09 22:00:00 18.2 6 Nordeste 17 Nordeste 0 -- -- 52
2020-09-09 21:00:00 19.3 5 Nordeste 14 Norte 0 -- -- 41
2020-09-09 20:00:00 23.5 8 Nordeste 24 Norte 0 -- -- 32
2020-09-09 19:00:00 26.2 16 Norte 25 Norte 0 -- -- 27
2020-09-09 18:00:00 25.9 18 Norte 27 Norte 0 -- -- 26
2020-09-09 17:00:00 27.6 13 Norte 24 Nordeste 0 -- -- 26
2020-09-09 16:00:00 26.6 12 Norte 21 Norte 0 -- -- 26
2020-09-09 15:00:00 25.6 12 Norte 27 Norte 0 -- -- 28
2020-09-09 14:00:00 25.7 6 Nordeste 19 Sur 0 -- -- 29
2020-09-09 13:00:00 23.8 6 Oeste 14 Noroeste 0 -- -- 33
2020-09-09 12:00:00 23.2 3 Sur 13 Sudeste 0 -- -- 35
2020-09-09 11:00:00 20.7 2 Noroeste 7 Oeste 0 -- -- 39
2020-09-09 10:00:00 17 0 Calma 4 Este 0 -- -- 48
2020-09-09 09:00:00 9.3 0 Calma 5 Este 0 -- -- 71
2020-09-09 08:00:00 4.8 0 Calma 6 Este 0 -- -- 84
2020-09-09 07:00:00 6 4 Este 6 Este 0 -- -- 81
2020-09-09 06:00:00 5.8 3 Sur 5 Sur 0 -- -- 80
2020-09-09 05:00:00 6.3 0 Calma 5 Nordeste 0 -- -- 76
2020-09-09 04:00:00 6.9 3 Sur 4 Sur 0 -- -- 76
2020-09-09 03:00:00 7.7 3 Sudeste 5 Sur 0 -- -- 72
2020-09-09 02:00:00 9.2 0 Calma 9 Este 0 -- -- 70
2020-09-09 01:00:00 10.6 0 Calma 13 Este 0 -- -- 58
2020-09-09 00:00:00 14.5 8 Este 12 Este 0 -- -- 48
2020-09-08 23:00:00 12.3 2 Sudeste 10 Este 0 -- -- 56
2020-09-08 22:00:00 14.6 4 Este 17 Este 0 -- -- 48
2020-09-08 21:00:00 17.8 12 Este 26 Este 0 -- -- 41
2020-09-08 20:00:00 22.1 15 Este 26 Este 0 -- -- 33
2020-09-08 19:00:00 23.7 16 Este 30 Sudeste 0 -- -- 27
2020-09-08 18:00:00 25.2 8 Este 24 Este 0 -- -- 26
2020-09-08 17:00:00 24.7 13 Este 25 Este 0 -- -- 25
2020-09-08 16:00:00 24 10 Este 30 Nordeste 0 -- -- 25
2020-09-08 15:00:00 23.1 10 Este 27 Este 0 -- -- 28
2020-09-08 14:00:00 21.8 15 Este 28 Este 0 -- -- 33
2020-09-08 13:00:00 20 13 Sudeste 25 Este 0 -- -- 38
2020-09-08 12:00:00 18.6 14 Este 25 Este 0 -- -- 46
2020-09-08 11:00:00 16.4 12 Este 19 Este 0 -- -- 51
2020-09-08 10:00:00 13.1 4 Sudeste 8 Sudeste 0 -- -- 63
2020-09-08 09:00:00 8.5 3 Este 5 Sudeste 0 -- -- 82
2020-09-08 08:00:00 4.7 0 Calma 8 Este 0 -- -- 91
2020-09-08 07:00:00 6.7 4 Este 8 Este 0 -- -- 85
2020-09-08 06:00:00 7.5 3 Sudeste 14 Este 0 -- -- 84
2020-09-08 05:00:00 7.2 4 Nordeste 14 Norte 0 -- -- 85
2020-09-08 04:00:00 7.6 3 Norte 11 Oeste 0 -- -- 80
2020-09-08 03:00:00 7.7 5 Oeste 20 Norte 0 -- -- 78
2020-09-08 02:00:00 9.5 14 Norte 22 Norte 0 -- -- 72
2020-09-08 01:00:00 8.9 6 Oeste 19 Noroeste 0 -- -- 71
2020-09-08 00:00:00 10.4 6 Noroeste 33 Norte 0 -- -- 64
2020-09-07 23:00:00 12 18 Norte 35 Norte 0 -- -- 56
2020-09-07 22:00:00 11.7 3 Nordeste 33 Norte 0 -- -- 52
2020-09-07 21:00:00 15.2 23 Norte 37 Nordeste 0 -- -- 42
2020-09-07 20:00:00 18.1 18 Norte 33 Norte 0 -- -- 37
2020-09-07 19:00:00 20.2 20 Norte 33 Norte 0 -- -- 32
2020-09-07 18:00:00 21.5 22 Norte 41 Norte 0 -- -- 31
2020-09-07 17:00:00 21.7 20 Norte 37 Nordeste 0 -- -- 29
2020-09-07 16:00:00 21.4 23 Norte 38 Norte 0 -- -- 28
2020-09-07 15:00:00 20.4 21 Norte 40 Noroeste 0 -- -- 35
2020-09-07 14:00:00 19.2 19 Norte 42 Norte 0 -- -- 38
2020-09-07 13:00:00 17.8 27 Norte 42 Norte 0 -- -- 43
2020-09-07 12:00:00 16.6 22 Norte 54 Norte 0 -- -- 47
2020-09-07 11:00:00 15.3 28 Norte 41 Norte 0 -- -- 53
2020-09-07 10:00:00 13.7 27 Norte 46 Norte 0 -- -- 57
2020-09-07 09:00:00 10.8 5 Noroeste 17 Norte 0 -- -- 69
2020-09-07 08:00:00 8 2 Norte 19 Norte 0 -- -- 77
2020-09-07 07:00:00 9.2 9 Norte 17 Nordeste 0 -- -- 75
2020-09-07 06:00:00 8.8 0 Calma 13 Nordeste 0 -- -- 80
2020-09-07 05:00:00 10 3 Norte 18 Norte 0 -- -- 74
2020-09-07 04:00:00 10.3 4 Este 14 Sudoeste 0 -- -- 73
2020-09-07 03:00:00 10.6 4 Este 27 Norte 0 -- -- 72
2020-09-07 02:00:00 11.3 15 Nordeste 29 Nordeste 0 -- -- 71
2020-09-07 01:00:00 11.7 11 Nordeste 32 Norte 0 -- -- 69
2020-09-07 00:00:00 12.4 23 Nordeste 36 Nordeste 0 -- -- 66
2020-09-06 23:00:00 13.2 23 Nordeste 38 Nordeste 0 -- -- 64
2020-09-06 22:00:00 14.3 24 Nordeste 38 Nordeste 0 -- -- 61
2020-09-06 21:00:00 16.2 22 Nordeste 39 Nordeste 0 -- -- 55
2020-09-06 20:00:00 19 23 Nordeste 38 Norte 0 -- -- 49
2020-09-06 19:00:00 21.4 22 Nordeste 36 Nordeste 0 -- -- 46
2020-09-06 18:00:00 24.1 23 Norte 35 Nordeste 0 -- -- 42
2020-09-06 17:00:00 27.9 14 Nordeste 32 Nordeste 0 -- -- 34
2020-09-06 16:00:00 28.9 12 Norte 26 Nordeste 0 -- -- 33
2020-09-06 15:00:00 27.7 5 Sudoeste 14 Norte 0 -- -- 33
2020-09-06 14:00:00 26.1 7 Sudeste 18 Este 0 -- -- 39
2020-09-06 13:00:00 24.6 7 Sudeste 18 Nordeste 0 -- -- 44
2020-09-06 12:00:00 22.2 8 Este 17 Este 0 -- -- 52
2020-09-06 11:00:00 18.3 9 Este 20 Este 0 -- -- 67
2020-09-06 10:00:00 14.7 11 Este 21 Sudeste 0 -- -- 82
2020-09-06 09:00:00 13.6 12 Este 19 Este 0 -- -- 88
2020-09-06 08:00:00 9 0 Calma 8 Este 0 -- -- 95
2020-09-06 07:00:00 9.4 2 Este 4 Nordeste 0 -- -- 95
2020-09-06 06:00:00 10 3 Este 6 Sudeste 0 -- -- 93
2020-09-06 05:00:00 10.3 2 Sur 6 Este 0 -- -- 94
2020-09-06 04:00:00 11.8 3 Este 10 Este 0 -- -- 87
2020-09-06 03:00:00 12.9 2 Sudeste 10 Este 0 -- -- 85
2020-09-06 02:00:00 13.3 4 Este 9 Este 0 -- -- 83
2020-09-06 01:00:00 14.2 3 Este 14 Este 0 -- -- 80
2020-09-06 00:00:00 15.6 6 Este 18 Nordeste 0 -- -- 75
2020-09-05 23:00:00 17.3 11 Nordeste 29 Nordeste 0 -- -- 69
2020-09-05 22:00:00 18.5 18 Nordeste 32 Nordeste 0 -- -- 66
2020-09-05 21:00:00 20.8 20 Nordeste 35 Nordeste 0 -- -- 59
2020-09-05 20:00:00 24.5 21 Nordeste 34 Nordeste 0 -- -- 47
2020-09-05 19:00:00 29.6 17 Este 37 Nordeste 0 -- -- 31
2020-09-05 18:00:00 31.4 13 Nordeste 33 Nordeste 0 -- -- 29
2020-09-05 17:00:00 32.9 7 Sudeste 23 Sudeste 0 -- -- 25
2020-09-05 16:00:00 30.7 12 Sudeste 21 Este 0 -- -- 27
2020-09-05 15:00:00 30.8 9 Este 20 Este 0 -- -- 29
2020-09-05 14:00:00 29.6 10 Este 28 Este 0 -- -- 30
2020-09-05 13:00:00 28.2 12 Este 21 Este 0 -- -- 32
2020-09-05 12:00:00 27.5 9 Este 18 Este 0 -- -- 35
2020-09-05 11:00:00 24.1 3 Sudeste 8 Sudeste 0 -- -- 40
2020-09-05 10:00:00 21.2 3 Sudeste 6 Sudeste 0 -- -- 50
2020-09-05 09:00:00 14.8 2 Este 5 Nordeste 0 -- -- 68
2020-09-05 08:00:00 9.6 4 Este 6 Nordeste 0 -- -- 83
2020-09-05 07:00:00 9.6 4 Nordeste 6 Nordeste 0 -- -- 82
2020-09-05 06:00:00 10.2 3 Este 5 Nordeste 0 -- -- 78
2020-09-05 05:00:00 11.1 3 Este 6 Este 0 -- -- 74
2020-09-05 04:00:00 12.3 4 Este 7 Nordeste 0 -- -- 71
2020-09-05 03:00:00 13.7 4 Este 9 Este 0 -- -- 65
2020-09-05 02:00:00 15.2 3 Este 9 Este 0 -- -- 61
2020-09-05 01:00:00 18.6 6 Sudeste 14 Este 0 -- -- 50
2020-09-05 00:00:00 20.9 12 Este 18 Este 0 -- -- 44
2020-09-04 23:00:00 17.9 7 Este 12 Este 0 -- -- 51
2020-09-04 22:00:00 20.5 8 Este 18 Este 0 -- -- 44
2020-09-04 21:00:00 22.2 5 Sudeste 21 Este 0 -- -- 38
2020-09-04 20:00:00 29.9 5 Sur 14 Sur 0 -- -- 23
2020-09-04 19:00:00 33.1 2 Oeste 18 Oeste 0 -- -- 18
2020-09-04 18:00:00 32.6 7 Sudoeste 18 Sur 0 -- -- 20
2020-09-04 17:00:00 31.6 8 Sur 22 Sur 0 -- -- 23
2020-09-04 16:00:00 31.7 8 Sur 21 Sur 0 -- -- 24
2020-09-04 15:00:00 30.5 9 Sudeste 19 Sudeste 0 -- -- 27
2020-09-04 14:00:00 29.6 9 Sudeste 18 Sudoeste 0 -- -- 29
2020-09-04 13:00:00 27.8 9 Sudeste 17 Sudeste 0 -- -- 34
2020-09-04 12:00:00 26.3 7 Sudeste 16 Sudeste 0 -- -- 38
2020-09-04 11:00:00 23.4 6 Sudeste 14 Sur 0 -- -- 49
2020-09-04 10:00:00 19.9 7 Sudeste 12 Este 0 -- -- 58
2020-09-04 09:00:00 14.2 2 Este 4 Nordeste 0 -- -- 70
2020-09-04 08:00:00 8.7 4 Este 6 Este 0 -- -- 82
2020-09-04 07:00:00 8.9 5 Este 8 Este 0 -- -- 80
2020-09-04 06:00:00 8.7 4 Este 6 Nordeste 0 -- -- 81
2020-09-04 05:00:00 9.7 2 Nordeste 4 Nordeste 0 -- -- 76
2020-09-04 04:00:00 11.2 3 Nordeste 7 Nordeste 0 -- -- 70
2020-09-04 03:00:00 10.9 0 Calma 5 Sudeste 0 -- -- 66
2020-09-04 02:00:00 12.8 0 Calma 11 Este 0 -- -- 62
2020-09-04 01:00:00 14.2 3 Este 8 Este 0 -- -- 52
2020-09-04 00:00:00 14.7 5 Sudeste 11 Sudeste 0 -- -- 47
2020-09-03 23:00:00 18.6 9 Sudeste 13 Sudeste 0 -- -- 37
2020-09-03 22:00:00 20.4 9 Sudeste 15 Sudeste 0 -- -- 32
2020-09-03 21:00:00 22 10 Este 15 Este 0 -- -- 25
2020-09-03 20:00:00 29.8 6 Este 15 Este 0 -- -- 14
2020-09-03 19:00:00 30.4 9 Nordeste 19 Sudeste 0 -- -- 16
2020-09-03 18:00:00 31 5 Sudeste 15 Sudeste 0 -- -- 19
2020-09-03 17:00:00 30.9 5 Este 15 Nordeste 0 -- -- 19
2020-09-03 16:00:00 29.7 6 Oeste 18 Este 0 -- -- 20
2020-09-03 15:00:00 29.4 5 Sudoeste 15 Sudoeste 0 -- -- 20
2020-09-03 14:00:00 28.2 6 Este 16 Noroeste 0 -- -- 23
2020-09-03 13:00:00 26.5 4 Noroeste 14 Oeste 0 -- -- 32
2020-09-03 12:00:00 24.1 5 Sudeste 13 Norte 0 -- -- 39
2020-09-03 11:00:00 20.8 5 Sudeste 13 Sudeste 0 -- -- 45
2020-09-03 10:00:00 16.7 5 Sudeste 8 Sudeste 0 -- -- 49
2020-09-03 09:00:00 10 3 Este 6 Este 0 -- -- 71
2020-09-03 08:00:00 4.2 5 Este 6 Este 0 -- -- 88
2020-09-03 07:00:00 4 4 Este 5 Este 0 -- -- 87
2020-09-03 06:00:00 4.4 2 Sudeste 5 Sur 0 -- -- 84
2020-09-03 05:00:00 5.4 2 Este 6 Este 0 -- -- 84
2020-09-03 04:00:00 6.3 0 Calma 5 Este 0 -- -- 81
2020-09-03 03:00:00 7.2 2 Este 8 Este 0 -- -- 78
2020-09-03 02:00:00 9.3 3 Este 6 Nordeste 0 -- -- 72
2020-09-03 01:00:00 10.9 4 Este 9 Nordeste 0 -- -- 66
2020-09-03 00:00:00 14.3 6 Este 21 Este 0 -- -- 53
2020-09-02 23:00:00 15.2 9 Nordeste 19 Nordeste 0 -- -- 50
2020-09-02 22:00:00 16.9 10 Nordeste 23 Nordeste 0 -- -- 43
2020-09-02 21:00:00 19.1 13 Nordeste 27 Nordeste 0 -- -- 37
2020-09-02 20:00:00 26 6 Norte 20 Nordeste 0 -- -- 26
2020-09-02 19:00:00 27.8 3 Sudoeste 15 Oeste 0 -- -- 21
2020-09-02 18:00:00 27.4 6 Norte 21 Este 0 -- -- 21
2020-09-02 17:00:00 26.7 10 Nordeste 22 Nordeste 0 -- -- 23
2020-09-02 16:00:00 24.9 9 Norte 21 Este 0 -- -- 25
2020-09-02 15:00:00 24.7 7 Noroeste 20 Norte 0 -- -- 28
2020-09-02 14:00:00 22.7 14 Norte 23 Norte 0 -- -- 32
2020-09-02 13:00:00 21.4 11 Norte 22 Noroeste 0 -- -- 34
2020-09-02 12:00:00 19.8 15 Norte 28 Norte 0 -- -- 38
2020-09-02 11:00:00 18.1 13 Nordeste 23 Norte 0 -- -- 45
2020-09-02 10:00:00 16.1 10 Nordeste 19 Norte 0 -- -- 53
2020-09-02 09:00:00 13.1 7 Norte 14 Norte 0 -- -- 66
2020-09-02 08:00:00 7.7 0 Calma 9 Norte 0 -- -- 88
2020-09-02 07:00:00 8.3 4 Noroeste 13 Nordeste 0 -- -- 87
2020-09-02 06:00:00 10.2 6 Nordeste 14 Nordeste 0 -- -- 79
2020-09-02 05:00:00 10.5 3 Noroeste 12 Nordeste 0 -- -- 75
2020-09-02 04:00:00 11.6 9 Nordeste 35 Nordeste 0 -- -- 68
2020-09-02 03:00:00 12.2 14 Nordeste 32 Nordeste 0 -- -- 61
2020-09-02 02:00:00 12.9 19 Nordeste 28 Nordeste 0 -- -- 60
2020-09-02 01:00:00 13.3 20 Nordeste 28 Nordeste 0 -- -- 56
2020-09-02 00:00:00 13.8 16 Nordeste 32 Nordeste 0 -- -- 51
2020-09-01 23:00:00 14.7 16 Nordeste 30 Nordeste 0 -- -- 51
2020-09-01 22:00:00 16.4 17 Nordeste 27 Nordeste 0 -- -- 48
2020-09-01 21:00:00 17.8 10 Nordeste 26 Nordeste 0 -- -- 36
2020-09-01 20:00:00 20.2 16 Nordeste 31 Nordeste 0 -- -- 32
2020-09-01 19:00:00 22 18 Nordeste 31 Nordeste 0 -- -- 30
2020-09-01 18:00:00 24.8 4 Sur 17 Oeste 0 -- -- 22
2020-09-01 17:00:00 25.5 6 Noroeste 19 Oeste 0 -- -- 22
2020-09-01 16:00:00 24.7 8 Norte 18 Norte 0 -- -- 23
2020-09-01 15:00:00 24.7 8 Noroeste 22 Oeste 0 -- -- 24
2020-09-01 14:00:00 24 8 Nordeste 14 Nordeste 0 -- -- 25
2020-09-01 13:00:00 22.3 5 Sudeste 10 Sudeste 0 -- -- 27
2020-09-01 12:00:00 19.1 3 Sudoeste 10 Este 0 -- -- 35
2020-09-01 11:00:00 16.9 4 Oeste 9 Noroeste 0 -- -- 46
2020-09-01 10:00:00 13.2 0 Calma 6 Noroeste 0 -- -- 55
2020-09-01 09:00:00 10.6 0 Calma 11 Oeste 0 -- -- 61
2020-09-01 08:00:00 8.9 3 Este 12 Este 0 -- -- 65
2020-09-01 07:00:00 7.4 0 Calma 2 Nordeste 0 -- -- 73
2020-09-01 06:00:00 7.2 0 Calma 6 Noroeste 0 -- -- 71
2020-09-01 05:00:00 7.3 0 Calma 5 Este 0 -- -- 72
2020-09-01 04:00:00 7.1 2 Este 8 Este 0 -- -- 70
2020-09-01 03:00:00 7.5 0 Calma 6 Este 0 -- -- 69
2020-09-01 02:00:00 6.9 2 Nordeste 5 Nordeste 0 -- -- 69
2020-09-01 01:00:00 7.8 0 Calma 6 Sudeste 0 -- -- 65
2020-09-01 00:00:00 9.3 0 Calma 9 Este 0 -- -- 59
2020-08-31 23:00:00 10.7 3 Sudeste 13 Nordeste 0 -- -- 54
2020-08-31 22:00:00 13.5 0 Calma 7 Noroeste 0 -- -- 42
2020-08-31 21:00:00 17.4 4 Noroeste 11 Noroeste 0 -- -- 33
2020-08-31 20:00:00 20.3 7 Oeste 22 Oeste 0 -- -- 28
2020-08-31 19:00:00 23.6 12 Noroeste 21 Noroeste 0 -- -- 23
2020-08-31 18:00:00 25.3 6 Noroeste 24 Oeste 0 -- -- 19
2020-08-31 17:00:00 24.8 9 Oeste 23 Noroeste 0 -- -- 21
2020-08-31 16:00:00 24 10 Oeste 22 Sudoeste 0 -- -- 21
2020-08-31 15:00:00 23.2 5 Oeste 20 Sudoeste 0 -- -- 26
2020-08-31 14:00:00 21.6 8 Oeste 17 Oeste 0 -- -- 25
2020-08-31 13:00:00 19.9 5 Oeste 15 Noroeste 0 -- -- 31
2020-08-31 12:00:00 17.7 5 Noroeste 13 Oeste 0 -- -- 40
2020-08-31 11:00:00 14.6 4 Sudoeste 10 Oeste 0 -- -- 53
2020-08-31 10:00:00 10.4 3 Oeste 6 Oeste 0 -- -- 71
2020-08-31 09:00:00 5.6 0 Calma 2 Este 0 -- -- 93
2020-08-31 08:00:00 0.5 3 Este -- -- 0 -- -- 96
2020-08-31 07:00:00 0.6 3 Este 5 Nordeste 0 -- -- 96
2020-08-31 06:00:00 0.9 2 Este 5 Este 0 -- -- 95
2020-08-31 05:00:00 1.9 3 Este 3 Este 0 -- -- 96
2020-08-31 04:00:00 3.4 2 Este 4 Este 0 -- -- 93
2020-08-31 03:00:00 5.4 3 Sur 9 Nordeste 0 -- -- 87
2020-08-31 02:00:00 7 4 Sudeste 10 Oeste 0 -- -- 82
2020-08-31 01:00:00 8.4 4 Noroeste 19 Nordeste 0 -- -- 76
2020-08-31 00:00:00 9.1 6 Nordeste 23 Norte 0 -- -- 74
2020-08-30 23:00:00 10.1 18 Norte 32 Nordeste 0 -- -- 68
2020-08-30 22:00:00 11.2 22 Norte 35 Norte 0 -- -- 66
2020-08-30 21:00:00 13 21 Norte 31 Norte 0 -- -- 54
2020-08-30 20:00:00 15.2 21 Norte 28 Norte 0 -- -- 44
2020-08-30 19:00:00 18.4 14 Norte 29 Norte 0 -- -- 36
2020-08-30 18:00:00 19.6 9 Noroeste 24 Norte 0 -- -- 33
2020-08-30 17:00:00 19.4 15 Norte 32 Norte 0 -- -- 34
2020-08-30 16:00:00 20.5 7 Este 25 Noroeste 0 -- -- 30
2020-08-30 15:00:00 18.9 8 Norte 26 Nordeste 0 -- -- 31
2020-08-30 14:00:00 16.4 10 Norte 26 Norte 0 -- -- 35
2020-08-30 13:00:00 16.7 9 Noroeste 20 Noroeste 0 -- -- 45
2020-08-30 12:00:00 14.8 7 Noroeste 25 Norte 0 -- -- 54
2020-08-30 11:00:00 12.4 7 Oeste 15 Oeste 0 -- -- 65
2020-08-30 10:00:00 9.3 9 Oeste 16 Oeste 0 -- -- 83
2020-08-30 09:00:00 5.7 7 Oeste 12 Oeste 0 -- -- 98
2020-08-30 08:00:00 1.7 0 Calma 4 Sur 0 -- -- 98
2020-08-30 07:00:00 2.1 0 Calma 4 Sur 0 -- -- 99
2020-08-30 06:00:00 2 0 Calma 8 Oeste 0 -- -- 99
2020-08-30 05:00:00 2.3 5 Noroeste 8 Oeste 0 -- -- 98
2020-08-30 04:00:00 2.8 6 Oeste 14 Oeste 0 -- -- 95
2020-08-30 03:00:00 4.8 3 Sur 8 Oeste 0 -- -- 96
2020-08-30 02:00:00 5 6 Oeste 17 Oeste 0 -- -- 92
2020-08-30 01:00:00 5.7 4 Oeste 13 Noroeste 0 -- -- 90
2020-08-30 00:00:00 8.4 8 Noroeste 18 Noroeste 0 -- -- 82
2020-08-29 23:00:00 9.5 13 Noroeste 29 Noroeste 0 -- -- 80
2020-08-29 22:00:00 10 14 Noroeste 19 Noroeste 0 -- -- 82
2020-08-29 21:00:00 10.5 9 Oeste 13 Oeste 0 -- -- 81
2020-08-29 20:00:00 11.6 6 Noroeste 38 Norte 0 -- -- 77
2020-08-29 19:00:00 12.3 13 Noroeste 49 Noroeste 0.8 -- -- 80
2020-08-29 18:00:00 18.7 28 Noroeste 45 Noroeste 0 -- -- 39
2020-08-29 17:00:00 20.5 24 Oeste 46 Noroeste 0 -- -- 34
2020-08-29 16:00:00 19.9 24 Noroeste 39 Noroeste 0 -- -- 34
2020-08-29 15:00:00 18.8 23 Noroeste 37 Noroeste 0 -- -- 35
2020-08-29 14:00:00 19.2 16 Noroeste 35 Noroeste 0 -- -- 34
2020-08-29 13:00:00 18.8 18 Noroeste 35 Noroeste 0 -- -- 39
2020-08-29 12:00:00 17.4 8 Oeste 27 Noroeste 0 -- -- 44
2020-08-29 11:00:00 15.2 11 Noroeste 23 Noroeste 0 -- -- 52
2020-08-29 10:00:00 13.2 13 Noroeste 18 Noroeste 0 -- -- 57
2020-08-29 09:00:00 11.1 11 Noroeste 18 Norte 0 -- -- 67
2020-08-29 08:00:00 9 14 Norte 23 Norte 0 -- -- 74
2020-08-29 07:00:00 7.1 2 Este 9 Norte 0 -- -- 83
2020-08-29 06:00:00 9.7 8 Norte 18 Norte 0 -- -- 74
2020-08-29 05:00:00 11 16 Norte 26 Norte 0 -- -- 69
2020-08-29 04:00:00 12.1 10 Norte 31 Norte 0 -- -- 63
2020-08-29 03:00:00 12.3 23 Norte 39 Norte 0 -- -- 66
2020-08-29 02:00:00 11.9 19 Norte 40 Norte 0 -- -- 72
2020-08-29 01:00:00 12.2 21 Nordeste 40 Nordeste 0 -- -- 73
2020-08-29 00:00:00 12.4 25 Nordeste 41 Nordeste 0 -- -- 80
2020-08-28 23:00:00 12.8 22 Nordeste 38 Nordeste 0 -- -- 78
2020-08-28 22:00:00 12.9 25 Nordeste 40 Nordeste 0 -- -- 79
2020-08-28 21:00:00 14.5 22 Nordeste 40 Norte 0 -- -- 76
2020-08-28 20:00:00 17.1 27 Nordeste 42 Nordeste 0 -- -- 68
2020-08-28 19:00:00 22.8 24 Norte 42 Oeste 0 -- -- 52
2020-08-28 18:00:00 28 25 Noroeste 44 Oeste 0 -- -- 33
2020-08-28 17:00:00 28.4 22 Oeste 41 Noroeste 0 -- -- 34
2020-08-28 16:00:00 27.4 21 Noroeste 40 Oeste 0 -- -- 38
2020-08-28 15:00:00 27.1 20 Oeste 38 Noroeste 0 -- -- 40
2020-08-28 14:00:00 24.8 16 Noroeste 33 Oeste 0 -- -- 46
2020-08-28 13:00:00 25.6 20 Oeste 36 Oeste 0 -- -- 48
2020-08-28 12:00:00 24.4 18 Oeste 32 Oeste 0 -- -- 51
2020-08-28 11:00:00 21.8 21 Oeste 35 Oeste 0 -- -- 61
2020-08-28 10:00:00 20 18 Oeste 29 Oeste 0 -- -- 66
2020-08-28 09:00:00 16.3 6 Oeste 8 Oeste 0 -- -- 80
2020-08-28 08:00:00 13 0 Calma 4 Noroeste 0 -- -- 94
2020-08-28 07:00:00 12.6 0 Calma 5 Noroeste 0 -- -- 94
2020-08-28 06:00:00 12.4 0 Calma 8 Oeste 0 -- -- 93
2020-08-28 05:00:00 13.2 3 Oeste 10 Oeste 0 -- -- 88
2020-08-28 04:00:00 13.9 4 Este 6 Este 0 -- -- 85
2020-08-28 03:00:00 14.7 0 Calma 5 Sudeste 0 -- -- 84
2020-08-28 02:00:00 17.2 3 Sudeste 7 Este 0 -- -- 78
2020-08-28 01:00:00 19.4 2 Sudeste 11 Nordeste 0 -- -- 72
2020-08-28 00:00:00 19.2 0 Calma 10 Nordeste 0 -- -- 70
2020-08-27 23:00:00 19.5 5 Este 19 Nordeste 0 -- -- 59
2020-08-27 22:00:00 19.6 4 Este 5 Este 0 -- -- 42
2020-08-27 21:00:00 24.6 0 Calma 21 Noroeste 0 -- -- 31
2020-08-27 20:00:00 30.6 17 Noroeste 31 Noroeste 0 -- -- 22
2020-08-27 19:00:00 32.6 19 Oeste 32 Noroeste 0 -- -- 22
2020-08-27 18:00:00 33.6 15 Oeste 31 Oeste 0 -- -- 20
2020-08-27 17:00:00 33.5 15 Oeste 32 Oeste 0 -- -- 23
2020-08-27 16:00:00 33.3 10 Oeste 28 Oeste 0 -- -- 25
2020-08-27 15:00:00 32.7 14 Noroeste 30 Oeste 0 -- -- 24
2020-08-27 14:00:00 31.7 15 Oeste 30 Oeste 0 -- -- 25
2020-08-27 13:00:00 30.8 8 Oeste 18 Oeste 0 -- -- 30
2020-08-27 12:00:00 28.9 6 Oeste 14 Oeste 0 -- -- 36
2020-08-27 11:00:00 25.6 3 Sudoeste 9 Oeste 0 -- -- 47
2020-08-27 10:00:00 20.9 5 Oeste 9 Oeste 0 -- -- 64
2020-08-27 09:00:00 16.4 0 Calma 5 Este 0 -- -- 77
2020-08-27 08:00:00 11.5 5 Este 6 Este 0 -- -- 91
2020-08-27 07:00:00 11.4 2 Sudeste 4 Nordeste 0 -- -- 91
2020-08-27 06:00:00 12.1 0 Calma 3 Nordeste 0 -- -- 86
2020-08-27 05:00:00 12.4 0 Calma 7 Oeste 0 -- -- 87
2020-08-27 04:00:00 14.4 6 Este 8 Este 0 -- -- 75
2020-08-27 03:00:00 14.1 5 Este 7 Este 0 -- -- 77
2020-08-27 02:00:00 14.7 4 Este 6 Este 0 -- -- 75
2020-08-27 01:00:00 15.9 0 Calma 5 Nordeste 0 -- -- 68
2020-08-27 00:00:00 17.9 2 Sudeste 9 Este 0 -- -- 63
2020-08-26 23:00:00 21.5 7 Este 9 Este 0 -- -- 52
2020-08-26 22:00:00 23.6 8 Nordeste 25 Nordeste 0 -- -- 45
2020-08-26 21:00:00 26.3 11 Nordeste 16 Nordeste 0 -- -- 39
2020-08-26 20:00:00 32.5 10 Oeste 22 Oeste 0 -- -- 23
2020-08-26 19:00:00 34 12 Noroeste 24 Noroeste 0 -- -- 20
2020-08-26 18:00:00 34.7 12 Noroeste 27 Noroeste 0 -- -- 20
2020-08-26 17:00:00 35.2 9 Noroeste 29 Sudoeste 0 -- -- 20
2020-08-26 16:00:00 34.9 10 Noroeste 28 Noroeste 0 -- -- 19
2020-08-26 15:00:00 33.3 11 Noroeste 26 Noroeste 0 -- -- 20
2020-08-26 14:00:00 32.5 6 Oeste 20 Oeste 0 -- -- 21
2020-08-26 13:00:00 31 8 Oeste 15 Oeste 0 -- -- 27
2020-08-26 12:00:00 28.3 5 Oeste 13 Sudoeste 0 -- -- 35
2020-08-26 11:00:00 25.2 3 Oeste 8 Oeste 0 -- -- 43
2020-08-26 10:00:00 21.2 3 Oeste 5 Oeste 0 -- -- 52
2020-08-26 09:00:00 15.4 0 Calma 4 Noroeste 0 -- -- 67
2020-08-26 08:00:00 10.2 2 Nordeste 5 Este 0 -- -- 83
2020-08-26 07:00:00 10.4 3 Sur 8 Este 0 -- -- 81
2020-08-26 06:00:00 11.2 6 Este 8 Este 0 -- -- 78
2020-08-26 05:00:00 11.4 3 Nordeste 6 Nordeste 0 -- -- 79
2020-08-26 04:00:00 12.1 2 Este 6 Sudeste 0 -- -- 74
2020-08-26 03:00:00 13.2 2 Nordeste 5 Este 0 -- -- 71
2020-08-26 02:00:00 14.5 2 Este 6 Este 0 -- -- 63
2020-08-26 01:00:00 16.8 3 Sur 14 Oeste 0 -- -- 55
2020-08-26 00:00:00 17.2 7 Nordeste 10 Nordeste 0 -- -- 52